Time;durP1;ratioP1;P1;durP2;ratioP2;P2;SDS_P1;SDS_P2;PMS_P1;PMS_P2;Temp;Humidity;BMP_temperature;BMP_pressure;BME280_temperature;BME280_humidity;BME280_pressure;Samples;Min_cycle;Max_cycle;Signal;HPM_P1;HPM_P2
2022/04/23 00:00:27;;;;;;;13.40;7.38;;;11.20;99.90;;;;;;5034046;28;20124;-82
2022/04/23 00:02:53;;;;;;;13.23;7.35;;;11.10;99.90;;;;;;5034670;28;20121;-82
2022/04/23 00:05:18;;;;;;;10.70;7.38;;;11.00;99.90;;;;;;5032919;28;20105;-82
2022/04/23 00:07:44;;;;;;;12.32;7.38;;;11.00;99.90;;;;;;5017994;28;20419;-81
2022/04/23 00:10:09;;;;;;;13.75;8.25;;;10.90;99.90;;;;;;5033470;28;20045;-82
2022/04/23 00:12:35;;;;;;;12.10;7.47;;;10.90;99.90;;;;;;5033873;28;20175;-82
2022/04/23 00:15:01;;;;;;;11.88;7.40;;;10.80;99.90;;;;;;5033494;28;20566;-81
2022/04/23 00:17:26;;;;;;;13.80;7.53;;;10.80;99.90;;;;;;5029946;28;20068;-82
2022/04/23 00:19:53;;;;;;;11.57;7.53;;;10.70;99.90;;;;;;5035323;28;20396;-81
2022/04/23 00:22:19;;;;;;;13.65;7.53;;;10.70;99.90;;;;;;5032700;28;20045;-82
2022/04/23 00:24:45;;;;;;;10.35;7.50;;;10.60;99.90;;;;;;5033116;28;20466;-80
2022/04/23 00:27:10;;;;;;;11.30;7.90;;;10.60;99.90;;;;;;5034209;28;20093;-82
2022/04/23 00:29:36;;;;;;;13.07;7.50;;;10.60;99.90;;;;;;5030140;28;20069;-81
2022/04/23 00:32:03;;;;;;;10.23;7.32;;;10.50;99.90;;;;;;5031419;28;20048;-80
2022/04/23 00:34:28;;;;;;;9.82;7.28;;;10.50;99.90;;;;;;5028667;28;20052;-81
2022/04/23 00:36:54;;;;;;;15.63;7.90;;;10.50;99.90;;;;;;5030435;28;20037;-80
2022/04/23 00:39:20;;;;;;;12.52;8.05;;;10.50;99.90;;;;;;5031134;28;20040;-80
2022/04/23 00:41:46;;;;;;;11.85;7.28;;;10.50;99.90;;;;;;5030447;28;20045;-80
2022/04/23 00:44:12;;;;;;;11.93;7.78;;;10.50;99.90;;;;;;5031283;28;20045;-80
2022/04/23 00:46:38;;;;;;;14.73;7.65;;;10.40;99.90;;;;;;5035239;28;20033;-81
2022/04/23 00:49:05;;;;;;;12.38;7.55;;;10.40;99.90;;;;;;5048871;28;20193;-80
2022/04/23 00:51:32;;;;;;;12.85;7.80;;;10.40;99.90;;;;;;5031491;28;20115;-80
2022/04/23 00:54:01;;;;;;;14.13;8.88;;;10.30;99.90;;;;;;5028633;28;20034;-81
2022/04/23 00:56:27;;;;;;;12.32;8.23;;;10.30;99.90;;;;;;5027621;28;20037;-81
2022/04/23 00:58:53;;;;;;;16.00;8.32;;;10.30;99.90;;;;;;5030326;28;20041;-80
2022/04/23 01:01:23;;;;;;;13.82;8.32;;;10.30;99.90;;;;;;5030625;28;20045;-80
2022/04/23 01:03:49;;;;;;;13.32;8.80;;;10.30;99.90;;;;;;5029348;28;20049;-81
2022/04/23 01:06:15;;;;;;;13.27;9.10;;;10.30;99.90;;;;;;5030983;28;20080;-81
2022/04/23 01:08:41;;;;;;;15.23;8.57;;;10.30;99.90;;;;;;5031790;28;20044;-81
2022/04/23 01:11:07;;;;;;;14.27;9.13;;;10.30;99.90;;;;;;5012782;28;20487;-81
2022/04/23 01:13:33;;;;;;;12.15;9.27;;;10.30;99.90;;;;;;5031334;28;20037;-82
2022/04/23 01:16:02;;;;;;;13.20;9.23;;;10.30;99.90;;;;;;5029646;28;20037;-81
2022/04/23 01:18:28;;;;;;;14.88;9.40;;;10.30;99.90;;;;;;5029572;28;20038;-80
2022/04/23 01:20:59;;;;;;;15.45;9.05;;;10.30;99.90;;;;;;5025096;28;20124;-80
2022/04/23 01:23:25;;;;;;;13.55;9.15;;;10.30;99.90;;;;;;5030528;28;20045;-80
2022/04/23 01:25:54;;;;;;;12.75;9.65;;;10.30;99.90;;;;;;5028666;28;20041;-81
2022/04/23 01:28:23;;;;;;;13.82;9.40;;;10.30;99.90;;;;;;5029120;28;20105;-80
2022/04/23 01:30:50;;;;;;;14.40;9.63;;;10.30;99.90;;;;;;5027906;28;20504;-80
2022/04/23 01:33:16;;;;;;;13.93;10.13;;;10.30;99.90;;;;;;5029995;28;20067;-80
2022/04/23 01:35:44;;;;;;;12.07;9.70;;;10.30;99.90;;;;;;5028550;28;20069;-81
2022/04/23 01:38:10;;;;;;;12.82;9.50;;;10.20;99.90;;;;;;5028685;28;20036;-80
2022/04/23 01:40:36;;;;;;;17.92;10.50;;;10.20;99.90;;;;;;5027908;28;20055;-80
2022/04/23 01:43:02;;;;;;;16.02;10.18;;;10.20;99.90;;;;;;5031043;28;20469;-80
2022/04/23 01:45:27;;;;;;;14.07;10.07;;;10.20;99.90;;;;;;5028728;28;20041;-80
2022/04/23 01:47:53;;;;;;;13.35;9.98;;;10.20;99.90;;;;;;5029621;28;20045;-80
2022/04/23 01:50:18;;;;;;;16.80;10.43;;;10.10;99.90;;;;;;5030395;28;20042;-81
2022/04/23 01:52:44;;;;;;;15.88;10.15;;;10.10;99.90;;;;;;5029116;28;20036;-79
2022/04/23 01:55:09;;;;;;;15.73;10.38;;;10.10;99.90;;;;;;5029471;28;20561;-79
2022/04/23 01:57:35;;;;;;;14.73;9.77;;;10.10;99.90;;;;;;5027946;28;20064;-80
2022/04/23 02:00:00;;;;;;;15.02;10.38;;;10.00;99.90;;;;;;5011831;28;20029;-80
2022/04/23 02:02:26;;;;;;;15.05;10.43;;;10.10;99.90;;;;;;5027605;28;20048;-80
2022/04/23 02:04:52;;;;;;;16.42;10.82;;;10.00;99.90;;;;;;5027494;28;20072;-80
2022/04/23 02:07:17;;;;;;;13.98;10.15;;;10.00;99.90;;;;;;5034294;28;20116;-79
2022/04/23 02:09:43;;;;;;;14.57;10.70;;;10.00;99.90;;;;;;5032413;28;20040;-80
2022/04/23 02:12:08;;;;;;;16.75;11.02;;;10.00;99.90;;;;;;5027425;28;20064;-79
2022/04/23 02:14:35;;;;;;;15.25;11.00;;;9.90;99.90;;;;;;5028419;28;20041;-80
2022/04/23 02:17:01;;;;;;;15.43;10.55;;;9.90;99.90;;;;;;5027914;28;20357;-79
2022/04/23 02:19:28;;;;;;;16.13;10.60;;;9.90;99.90;;;;;;5028496;28;20099;-79
2022/04/23 02:21:53;;;;;;;15.80;11.13;;;9.90;99.90;;;;;;5027640;28;20080;-80
2022/04/23 02:24:19;;;;;;;16.85;11.50;;;9.80;99.90;;;;;;5026284;28;20644;-79
2022/04/23 02:26:44;;;;;;;16.00;11.80;;;9.80;99.90;;;;;;5025791;28;20591;-78
2022/04/23 02:29:11;;;;;;;14.80;11.82;;;9.70;99.90;;;;;;5027186;28;20052;-79
2022/04/23 02:31:36;;;;;;;14.48;11.02;;;9.70;99.90;;;;;;5026998;28;20061;-79
2022/04/23 02:34:02;;;;;;;16.80;11.48;;;9.70;99.90;;;;;;5026233;28;20033;-78
2022/04/23 02:36:27;;;;;;;14.30;10.63;;;9.70;99.90;;;;;;5027423;28;20507;-80
2022/04/23 02:38:53;;;;;;;15.63;11.68;;;9.70;99.90;;;;;;5025969;28;20046;-79
2022/04/23 02:41:18;;;;;;;14.90;11.23;;;9.70;99.90;;;;;;5043299;28;20033;-79
2022/04/23 02:43:45;;;;;;;14.73;11.50;;;9.70;99.90;;;;;;5025161;28;20041;-79
2022/04/23 02:46:14;;;;;;;15.57;11.13;;;9.60;99.90;;;;;;5028336;28;20475;-79
2022/04/23 02:48:40;;;;;;;17.52;12.25;;;9.60;99.90;;;;;;5028015;28;20122;-80
2022/04/23 02:51:05;;;;;;;16.92;11.35;;;9.60;99.90;;;;;;5043734;28;20041;-79
2022/04/23 02:53:31;;;;;;;17.58;11.60;;;9.70;99.90;;;;;;5027680;28;20037;-79
2022/04/23 02:55:57;;;;;;;16.48;12.07;;;9.60;99.90;;;;;;5026843;28;20033;-80
2022/04/23 02:58:26;;;;;;;17.75;12.00;;;9.60;99.90;;;;;;5028320;28;20029;-80
2022/04/23 03:00:55;;;;;;;18.13;11.18;;;9.60;99.90;;;;;;5027303;28;20065;-80
2022/04/23 03:03:21;;;;;;;15.82;11.27;;;9.60;99.90;;;;;;5027399;28;20491;-79
2022/04/23 03:05:47;;;;;;;18.23;11.48;;;9.60;99.90;;;;;;5029173;28;20041;-80
2022/04/23 03:08:13;;;;;;;16.60;10.65;;;9.60;99.90;;;;;;5027585;28;20076;-81
2022/04/23 03:10:39;;;;;;;13.75;10.60;;;9.50;99.90;;;;;;5043046;28;20037;-80
2022/04/23 03:13:07;;;;;;;15.52;11.73;;;9.50;99.90;;;;;;5028643;28;20048;-80
2022/04/23 03:15:34;;;;;;;17.58;10.73;;;9.50;99.90;;;;;;5028989;28;20099;-80
2022/04/23 03:18:08;;;;;;;17.48;11.50;;;9.50;99.90;;;;;;5034074;28;20041;-80
2022/04/23 03:20:34;;;;;;;;;;;9.50;99.90;;;;;;5037599;28;20048;-81
2022/04/23 03:22:59;;;;;;;18.13;11.20;;;9.50;99.90;;;;;;5035055;28;20370;-80
2022/04/23 03:25:25;;;;;;;17.70;11.25;;;9.50;99.90;;;;;;5033702;28;20038;-81
2022/04/23 03:27:51;;;;;;;16.13;11.20;;;9.50;99.90;;;;;;5035054;28;20450;-81
2022/04/23 03:30:16;;;;;;;14.85;10.98;;;9.40;99.90;;;;;;5042360;28;20049;-80
2022/04/23 03:32:42;;;;;;;15.55;11.38;;;9.40;99.90;;;;;;5040703;28;20033;-80
2022/04/23 03:35:08;;;;;;;15.50;11.10;;;9.40;99.90;;;;;;5036432;28;20037;-81
2022/04/23 03:37:37;;;;;;;14.20;10.30;;;9.40;99.90;;;;;;5038896;28;20056;-80
2022/04/23 03:40:07;;;;;;;16.70;11.07;;;9.40;99.90;;;;;;5036840;28;20073;-81
2022/04/23 03:42:34;;;;;;;14.07;10.80;;;9.40;99.90;;;;;;5036312;28;20045;-81
2022/04/23 03:45:01;;;;;;;14.82;10.82;;;9.40;99.90;;;;;;5020378;28;20041;-81
2022/04/23 03:47:26;;;;;;;13.10;10.88;;;9.40;99.90;;;;;;5036995;28;20470;-81
2022/04/23 03:49:52;;;;;;;15.20;11.18;;;9.30;99.90;;;;;;5035263;28;20057;-80
2022/04/23 03:52:17;;;;;;;14.70;11.15;;;9.30;99.90;;;;;;5038284;28;20095;-82
2022/04/23 03:54:43;;;;;;;13.80;10.73;;;9.30;99.90;;;;;;5035716;28;20077;-82
2022/04/23 03:57:08;;;;;;;15.68;11.45;;;9.30;99.90;;;;;;5034090;28;20030;-83
2022/04/23 03:59:37;;;;;;;15.52;10.80;;;9.30;99.90;;;;;;5035176;28;20042;-83
2022/04/23 04:02:04;;;;;;;14.75;10.55;;;9.20;99.90;;;;;;5034129;28;20049;-82
2022/04/23 04:04:33;;;;;;;15.80;12.05;;;9.20;99.90;;;;;;5035406;28;20049;-83
2022/04/23 04:07:02;;;;;;;14.55;11.07;;;9.20;99.90;;;;;;5037560;28;20398;-82
2022/04/23 04:09:28;;;;;;;16.67;11.18;;;9.20;99.90;;;;;;5035953;28;20395;-84
2022/04/23 04:12:03;;;;;;;12.75;10.77;;;9.20;99.90;;;;;;5018195;28;20055;-83
2022/04/23 04:14:30;;;;;;;13.30;10.77;;;9.20;99.90;;;;;;5032822;28;20042;-83
2022/04/23 04:16:58;;;;;;;15.88;11.20;;;9.10;99.90;;;;;;5039059;28;20043;-83
2022/04/23 04:19:25;;;;;;;14.73;11.57;;;9.10;99.90;;;;;;5034535;28;20037;-81
2022/04/23 04:21:51;;;;;;;15.40;11.35;;;9.10;99.90;;;;;;5036551;28;20048;-82
2022/04/23 04:24:16;;;;;;;14.27;10.82;;;9.10;99.90;;;;;;5033273;28;20399;-84
2022/04/23 04:26:46;;;;;;;16.00;11.10;;;9.10;99.90;;;;;;5034603;28;20720;-83
2022/04/23 04:29:12;;;;;;;14.55;11.50;;;9.00;99.90;;;;;;5028758;28;20040;-84
2022/04/23 04:31:47;;;;;;;14.73;10.90;;;9.00;99.90;;;;;;5029637;28;20131;-83
2022/04/23 04:34:20;;;;;;;14.27;12.02;;;9.00;99.90;;;;;;5029926;28;20083;-84
2022/04/23 04:36:46;;;;;;;15.75;11.57;;;9.00;99.90;;;;;;5028133;28;20121;-84
2022/04/23 04:39:12;;;;;;;15.82;11.45;;;9.00;99.90;;;;;;5029569;28;20156;-83
2022/04/23 04:41:38;;;;;;;14.07;11.02;;;9.00;99.90;;;;;;5012672;28;20076;-84
2022/04/23 04:44:05;;;;;;;14.95;11.40;;;9.00;99.90;;;;;;5029313;28;20480;-84
2022/04/23 04:46:31;;;;;;;15.57;11.70;;;9.00;99.90;;;;;;5028544;28;20494;-83
2022/04/23 04:48:57;;;;;;;16.63;10.93;;;9.00;99.90;;;;;;5027586;28;20048;-84
2022/04/23 04:51:22;;;;;;;13.68;10.68;;;9.00;99.90;;;;;;5035440;28;20521;-82
2022/04/23 04:53:48;;;;;;;13.65;11.07;;;9.00;99.90;;;;;;5040164;28;20061;-83
2022/04/23 04:56:14;;;;;;;13.68;11.13;;;9.00;99.90;;;;;;5035778;28;20142;-84
2022/04/23 04:58:43;;;;;;;14.20;11.05;;;9.10;99.90;;;;;;5032104;28;20403;-82
2022/04/23 05:01:09;;;;;;;12.38;11.05;;;9.10;99.90;;;;;;5030887;28;20045;-84
2022/04/23 05:03:35;;;;;;;14.98;11.95;;;9.10;99.90;;;;;;5030768;28;20045;-84
2022/04/23 05:06:01;;;;;;;13.77;10.93;;;9.10;99.90;;;;;;5025722;28;20048;-84
2022/04/23 05:08:26;;;;;;;13.85;11.40;;;9.10;99.90;;;;;;5030259;28;20050;-85
2022/04/23 05:10:52;;;;;;;14.68;11.45;;;9.20;99.90;;;;;;5029806;28;20045;-84
2022/04/23 05:13:17;;;;;;;14.57;11.40;;;9.20;99.90;;;;;;5013840;28;20112;-84
2022/04/23 05:15:45;;;;;;;16.17;11.57;;;9.20;99.90;;;;;;5029535;28;20034;-83
2022/04/23 05:18:10;;;;;;;12.75;10.88;;;9.20;99.90;;;;;;5030239;28;20041;-83
2022/04/23 05:20:36;;;;;;;15.35;11.38;;;9.30;99.90;;;;;;5028033;28;20068;-83
2022/04/23 05:23:02;;;;;;;14.32;11.02;;;9.30;99.90;;;;;;5030136;28;20033;-83
2022/04/23 05:25:27;;;;;;;14.70;11.10;;;9.40;99.90;;;;;;5028591;28;20037;-84
2022/04/23 05:27:53;;;;;;;14.27;11.00;;;9.40;99.90;;;;;;5026268;28;20044;-82
2022/04/23 05:30:18;;;;;;;14.52;11.35;;;9.40;99.90;;;;;;5044388;28;20068;-82
2022/04/23 05:32:44;;;;;;;15.27;11.57;;;9.40;99.90;;;;;;5028942;28;20052;-85
2022/04/23 05:35:09;;;;;;;15.75;11.13;;;9.50;99.90;;;;;;5029706;28;20034;-83
2022/04/23 05:37:35;;;;;;;15.10;10.70;;;9.60;99.90;;;;;;5030379;28;20099;-83
2022/04/23 05:40:00;;;;;;;13.30;10.95;;;9.60;99.90;;;;;;5029506;28;20143;-81
2022/04/23 05:42:26;;;;;;;13.63;10.73;;;9.60;99.90;;;;;;5028038;28;20079;-82
2022/04/23 05:44:51;;;;;;;13.98;11.23;;;9.70;99.90;;;;;;5026663;28;20268;-83
2022/04/23 05:47:17;;;;;;;14.77;10.63;;;9.70;99.90;;;;;;5028890;28;20495;-84
2022/04/23 05:49:42;;;;;;;13.77;10.73;;;9.70;99.90;;;;;;5023023;28;20132;-82
2022/04/23 05:52:08;;;;;;;14.20;10.80;;;9.80;99.90;;;;;;5027845;28;20033;-84
2022/04/23 05:54:34;;;;;;;13.70;10.90;;;9.80;99.90;;;;;;5027702;28;20088;-81
2022/04/23 05:57:00;;;;;;;13.23;10.18;;;9.90;99.90;;;;;;5028085;28;20131;-84
2022/04/23 05:59:28;;;;;;;12.15;10.05;;;9.90;99.90;;;;;;5028375;28;20137;-82
2022/04/23 06:01:55;;;;;;;12.52;10.13;;;10.00;99.90;;;;;;5028560;28;20044;-81
2022/04/23 06:04:22;;;;;;;13.25;10.73;;;10.00;99.90;;;;;;5028815;28;20052;-81
2022/04/23 06:06:47;;;;;;;13.50;10.18;;;10.00;99.90;;;;;;5029778;28;20049;-80
2022/04/23 06:09:13;;;;;;;13.48;10.65;;;10.10;99.90;;;;;;5030418;28;20037;-82
2022/04/23 06:11:39;;;;;;;13.07;10.88;;;10.10;99.90;;;;;;5026067;28;20041;-81
2022/04/23 06:14:05;;;;;;;13.77;10.75;;;10.20;99.90;;;;;;5033299;28;20038;-82
2022/04/23 06:16:30;;;;;;;12.55;10.35;;;10.20;99.90;;;;;;5034243;28;20193;-80
2022/04/23 06:18:56;;;;;;;13.35;10.35;;;10.30;99.90;;;;;;5040094;28;20071;-81
2022/04/23 06:21:21;;;;;;;12.68;10.63;;;10.30;99.90;;;;;;5039273;28;20048;-82
2022/04/23 06:23:47;;;;;;;11.60;10.40;;;10.40;99.90;;;;;;5033667;28;20090;-81
2022/04/23 06:26:13;;;;;;;12.13;10.80;;;10.40;99.90;;;;;;5016617;28;20439;-83
2022/04/23 06:28:38;;;;;;;12.73;10.52;;;10.50;99.90;;;;;;5033739;28;20143;-83
2022/04/23 06:31:04;;;;;;;15.73;10.80;;;10.50;99.90;;;;;;5033624;28;20041;-82
2022/04/23 06:33:29;;;;;;;13.48;11.20;;;10.60;99.90;;;;;;5033134;28;20037;-84
2022/04/23 06:35:55;;;;;;;12.23;10.63;;;10.60;99.90;;;;;;5033188;28;20116;-83
2022/04/23 06:38:20;;;;;;;13.20;10.82;;;10.70;99.90;;;;;;5032469;28;20041;-84
2022/04/23 06:40:47;;;;;;;12.88;10.85;;;10.80;99.90;;;;;;5030474;28;20499;-85
2022/04/23 06:43:13;;;;;;;13.63;11.05;;;10.90;99.90;;;;;;5031539;28;20330;-83
2022/04/23 06:45:39;;;;;;;12.40;10.60;;;11.00;99.90;;;;;;5030879;28;20095;-86
2022/04/23 06:48:05;;;;;;;16.58;11.18;;;11.10;99.90;;;;;;5030651;28;20139;-86
2022/04/23 06:50:32;;;;;;;14.45;10.98;;;11.10;99.90;;;;;;5030116;28;20047;-84
2022/04/23 06:53:02;;;;;;;13.07;10.90;;;11.20;99.90;;;;;;5013821;28;20073;-85
2022/04/23 06:55:28;;;;;;;12.60;10.90;;;11.30;99.90;;;;;;5032565;28;20045;-85
2022/04/23 06:57:54;;;;;;;15.40;11.15;;;11.40;99.90;;;;;;5032123;28;20448;-88
2022/04/23 07:00:23;;;;;;;12.85;10.23;;;11.50;99.90;;;;;;5031189;28;20037;-82
2022/04/23 07:02:51;;;;;;;12.85;10.82;;;11.60;99.90;;;;;;5014485;28;20041;-85
2022/04/23 07:05:18;;;;;;;12.70;10.43;;;11.70;99.90;;;;;;5031035;28;20495;-84
2022/04/23 07:07:55;;;;;;;13.10;10.32;;;11.70;99.90;;;;;;5017973;28;20046;-84
2022/04/23 07:10:21;;;;;;;12.77;10.43;;;11.80;99.90;;;;;;5030613;28;20503;-86
2022/04/23 07:12:46;;;;;;;17.40;11.35;;;11.90;99.90;;;;;;5015487;28;20033;-83
2022/04/23 07:15:12;;;;;;;13.90;11.00;;;12.00;99.90;;;;;;5030835;28;20076;-85
2022/04/23 07:17:37;;;;;;;13.50;9.90;;;12.10;99.90;;;;;;5030731;28;20096;-81
2022/04/23 07:20:03;;;;;;;14.15;10.18;;;12.20;99.90;;;;;;5031638;28;20456;-82
2022/04/23 07:22:28;;;;;;;13.90;10.80;;;12.20;99.90;;;;;;5031353;28;20120;-83
2022/04/23 07:24:54;;;;;;;12.20;10.25;;;12.30;99.90;;;;;;5031674;28;20039;-81
2022/04/23 07:27:19;;;;;;;14.27;10.35;;;12.30;99.90;;;;;;5032486;28;20041;-83
2022/04/23 07:29:45;;;;;;;12.70;9.80;;;12.30;99.90;;;;;;5028793;28;20052;-81
2022/04/23 07:32:11;;;;;;;14.68;10.20;;;12.40;99.90;;;;;;5020085;28;20029;-84
2022/04/23 07:37:30;;;;;;;;;;;12.60;99.90;;;;;;5037042;28;20045;-82
2022/04/23 07:40:10;;;;;;;12.30;10.20;;;12.60;99.90;;;;;;5032605;28;19975;-81
2022/04/23 07:42:36;;;;;;;12.48;10.18;;;12.70;99.90;;;;;;5030487;28;20056;-83
2022/04/23 07:45:02;;;;;;;12.32;9.98;;;12.80;99.90;;;;;;5031603;28;20125;-83
2022/04/23 07:47:28;;;;;;;29.35;10.60;;;12.90;99.90;;;;;;5013979;28;20042;-81
2022/04/23 07:49:54;;;;;;;12.15;10.20;;;12.90;99.90;;;;;;5029942;28;20467;-79
2022/04/23 07:52:19;;;;;;;11.75;10.55;;;12.90;99.90;;;;;;5032632;28;20128;-80
2022/04/23 07:54:45;;;;;;;12.50;10.25;;;12.90;99.90;;;;;;5033263;28;20124;-81
2022/04/23 07:57:12;;;;;;;11.45;9.90;;;13.00;99.90;;;;;;5033367;28;20171;-81
2022/04/23 07:59:41;;;;;;;11.50;10.30;;;13.20;99.90;;;;;;5031919;28;20037;-80
2022/04/23 08:02:08;;;;;;;12.98;10.10;;;13.20;99.90;;;;;;5048679;28;20071;-80
2022/04/23 08:04:34;;;;;;;13.98;10.50;;;13.30;99.90;;;;;;5036319;28;20048;-80
2022/04/23 08:07:00;;;;;;;13.27;10.15;;;13.40;99.90;;;;;;5054149;28;20060;-79
2022/04/23 08:09:25;;;;;;;12.57;10.45;;;13.40;99.90;;;;;;5055998;28;20505;-79
2022/04/23 08:11:51;;;;;;;12.45;10.20;;;13.50;99.90;;;;;;5037572;28;20046;-80
2022/04/23 08:14:17;;;;;;;11.35;9.68;;;13.60;99.90;;;;;;5053359;28;20040;-79
2022/04/23 08:16:42;;;;;;;13.98;10.63;;;13.60;99.90;;;;;;5036416;28;20038;-81
2022/04/23 08:19:09;;;;;;;15.00;11.07;;;13.60;99.90;;;;;;5037836;28;20122;-81
2022/04/23 08:21:35;;;;;;;11.57;10.38;;;13.70;99.90;;;;;;5052369;28;20049;-79
2022/04/23 08:24:00;;;;;;;15.63;10.85;;;13.80;99.90;;;;;;5051612;28;20053;-81
2022/04/23 08:26:26;;;;;;;14.07;10.40;;;13.80;99.90;;;;;;5035572;28;20049;-80
2022/04/23 08:31:36;;;;;;;13.02;10.27;;;14.00;99.90;;;;;;5035304;28;20049;-80
2022/04/23 08:34:02;;;;;;;11.85;9.95;;;14.00;99.90;;;;;;5035244;28;20079;-81
2022/04/23 08:36:35;;;;;;;12.73;10.27;;;14.10;99.90;;;;;;5035842;28;20503;-81
2022/04/23 08:39:01;;;;;;;13.18;10.40;;;14.20;99.90;;;;;;5052173;28;20114;-82
2022/04/23 08:41:29;;;;;;;11.30;10.10;;;14.30;99.90;;;;;;5052803;28;20467;-80
2022/04/23 08:43:58;;;;;;;11.50;10.25;;;14.30;99.90;;;;;;5034085;28;20044;-81
2022/04/23 08:46:25;;;;;;;13.18;10.13;;;14.40;99.90;;;;;;5034851;28;20087;-80
2022/04/23 08:49:07;;;;;;;13.88;10.65;;;14.50;99.90;;;;;;5033197;28;20077;-81
2022/04/23 08:51:34;;;;;;;12.90;10.70;;;14.50;99.90;;;;;;5034770;28;20041;-79
2022/04/23 08:54:05;;;;;;;15.27;10.13;;;14.50;99.90;;;;;;5018113;28;20041;-79
2022/04/23 08:56:30;;;;;;;12.95;10.63;;;14.70;99.90;;;;;;5034606;28;20145;-79
2022/04/23 08:58:57;;;;;;;11.55;9.90;;;14.70;99.90;;;;;;5034492;28;20061;-76
2022/04/23 09:01:22;;;;;;;12.30;9.82;;;14.80;99.90;;;;;;5039866;28;20052;-80
2022/04/23 09:03:48;;;;;;;15.40;10.73;;;14.70;99.90;;;;;;5053053;28;20044;-79
2022/04/23 09:06:15;;;;;;;12.35;9.90;;;14.70;99.90;;;;;;5044305;28;20063;-79
2022/04/23 09:09:17;;;;;;;11.48;10.00;;;14.80;99.90;;;;;;5033074;28;20068;-79
2022/04/23 09:11:54;;;;;;;12.18;10.88;;;14.90;99.90;;;;;;5032964;28;20381;-79
2022/04/23 09:14:31;;;;;;;11.68;9.80;;;15.00;99.90;;;;;;5031759;28;20033;-79
2022/04/23 09:25:38;;;;;;;13.07;10.88;;;15.20;99.90;;;;;;5032180;28;20072;-79
2022/04/23 09:28:14;;;;;;;13.35;10.02;;;15.30;99.90;;;;;;5032455;28;20080;-79
2022/04/23 09:30:39;;;;;;;13.68;10.43;;;15.40;99.90;;;;;;5032042;28;20041;-78
2022/04/23 09:33:05;;;;;;;14.35;10.40;;;15.40;99.90;;;;;;5032028;28;20525;-78
2022/04/23 09:35:31;;;;;;;13.52;9.98;;;15.40;99.90;;;;;;5031888;28;20049;-77
2022/04/23 09:38:13;;;;;;;11.82;10.55;;;15.50;99.90;;;;;;5031851;28;20037;-77
2022/04/23 09:40:39;;;;;;;14.75;10.27;;;15.60;99.90;;;;;;5031928;28;20045;-78
2022/04/23 09:43:06;;;;;;;13.38;9.70;;;15.50;99.90;;;;;;5031869;28;20037;-79
2022/04/23 09:45:33;;;;;;;10.80;8.95;;;15.60;99.90;;;;;;5031717;28;20061;-78
2022/04/23 09:48:10;;;;;;;10.38;9.38;;;15.60;99.90;;;;;;5031526;28;20080;-79
2022/04/23 09:50:36;;;;;;;12.15;9.45;;;15.70;99.90;;;;;;5031315;28;20132;-79
2022/04/23 09:53:15;;;;;;;12.98;9.32;;;15.80;99.90;;;;;;5031627;28;20042;-78
2022/04/23 09:55:42;;;;;;;10.18;8.50;;;15.70;99.20;;;;;;5031062;28;20050;-78
2022/04/23 09:58:09;;;;;;;10.32;9.27;;;15.80;99.30;;;;;;5031248;28;20037;-77
2022/04/23 10:00:41;;;;;;;13.10;9.45;;;15.80;99.50;;;;;;5030991;28;20041;-79
2022/04/23 10:03:08;;;;;;;12.23;9.43;;;15.90;98.20;;;;;;5031546;28;20414;-80
2022/04/23 10:05:54;;;;;;;11.65;9.20;;;15.90;98.60;;;;;;5031088;28;20040;-78
2022/04/23 10:08:26;;;;;;;10.98;9.23;;;16.00;98.60;;;;;;5031319;28;20301;-78
2022/04/23 10:10:54;;;;;;;10.88;9.02;;;16.10;98.60;;;;;;5031250;28;20125;-77
2022/04/23 10:13:22;;;;;;;10.13;9.13;;;16.20;98.20;;;;;;5031170;28;20033;-78
2022/04/23 10:15:48;;;;;;;10.93;8.80;;;16.20;98.10;;;;;;5029692;28;20037;-75
2022/04/23 10:18:15;;;;;;;10.23;9.07;;;16.40;98.10;;;;;;5046650;28;20033;-78
2022/04/23 10:20:43;;;;;;;10.02;8.80;;;16.40;97.80;;;;;;5031437;28;20071;-78
2022/04/23 10:23:43;;;;;;;10.45;8.95;;;16.40;97.10;;;;;;5030847;28;20037;-77
2022/04/23 10:26:34;;;;;;;12.20;9.73;;;16.30;96.50;;;;;;5029825;28;20052;-77
2022/04/23 10:29:01;;;;;;;12.75;9.80;;;16.40;96.60;;;;;;5046856;28;20042;-78
2022/04/23 10:31:27;;;;;;;11.60;9.63;;;16.50;97.00;;;;;;5046947;28;20316;-79
2022/04/23 10:33:52;;;;;;;12.00;9.95;;;16.70;97.10;;;;;;5047398;28;20045;-77
2022/04/23 10:36:22;;;;;;;11.38;9.70;;;16.70;96.60;;;;;;5047318;28;20052;-78
2022/04/23 10:38:52;;;;;;;13.73;10.07;;;16.80;96.70;;;;;;5046504;28;20041;-77
2022/04/23 10:41:24;;;;;;;11.90;9.95;;;16.80;96.30;;;;;;5027524;28;20041;-77
2022/04/23 10:43:59;;;;;;;13.13;9.82;;;16.80;96.10;;;;;;5025424;28;20116;-78
2022/04/23 10:46:37;;;;;;;13.63;9.45;;;17.00;95.40;;;;;;5013268;28;20045;-77
2022/04/23 10:49:13;;;;;;;12.98;9.70;;;17.10;96.10;;;;;;5030171;28;20041;-77
2022/04/23 10:51:52;;;;;;;10.32;9.15;;;17.10;95.20;;;;;;5030628;28;20404;-77
2022/04/23 10:54:21;;;;;;;10.45;9.00;;;17.10;94.40;;;;;;5047050;28;20040;-78
2022/04/23 10:56:52;;;;;;;12.40;9.82;;;17.20;94.30;;;;;;5030741;28;20119;-78
2022/04/23 10:59:43;;;;;;;13.98;10.02;;;17.20;94.30;;;;;;5030260;28;20113;-78
2022/04/23 11:02:32;;;;;;;10.65;8.90;;;17.30;94.30;;;;;;5027346;28;20060;-78
2022/04/23 11:13:30;;;;;;;10.23;8.98;;;17.70;94.30;;;;;;5023644;28;20103;-78
2022/04/23 11:16:11;;;;;;;12.32;8.60;;;17.80;93.40;;;;;;5029170;28;20038;-77
2022/04/23 11:18:37;;;;;;;10.07;9.07;;;17.90;93.10;;;;;;5027910;28;20143;-79
2022/04/23 11:21:26;;;;;;;11.55;9.23;;;17.90;92.50;;;;;;5027958;28;20116;-77
2022/04/23 11:23:54;;;;;;;12.32;9.30;;;18.10;92.60;;;;;;5026902;28;20034;-77
2022/04/23 11:26:26;;;;;;;11.95;9.00;;;18.20;92.60;;;;;;5027118;28;20044;-76
2022/04/23 11:28:59;;;;;;;11.60;8.95;;;18.40;92.60;;;;;;5022917;28;20052;-77
2022/04/23 11:31:25;;;;;;;12.67;9.00;;;18.30;91.40;;;;;;5008856;28;20034;-78
2022/04/23 11:33:55;;;;;;;10.50;8.85;;;18.50;92.20;;;;;;5027408;28;20132;-78
2022/04/23 11:36:35;;;;;;;10.43;8.70;;;18.50;91.50;;;;;;5028503;28;20511;-78
2022/04/23 11:39:09;;;;;;;12.77;9.05;;;18.50;90.50;;;;;;5030967;28;20049;-77
2022/04/23 11:41:42;;;;;;;9.60;7.97;;;18.60;90.20;;;;;;5025610;28;20111;-77
2022/04/23 11:44:17;;;;;;;8.93;8.02;;;18.70;89.70;;;;;;5031936;28;20037;-76
2022/04/23 11:46:48;;;;;;;10.48;8.25;;;18.80;89.80;;;;;;5033413;28;20403;-78
2022/04/23 11:49:29;;;;;;;9.85;8.85;;;18.80;89.60;;;;;;5031649;28;20582;-77
2022/04/23 11:52:01;;;;;;;11.35;8.65;;;18.90;89.80;;;;;;5030149;28;20087;-77
2022/04/23 11:54:44;;;;;;;16.08;8.50;;;19.00;89.00;;;;;;5033692;28;20093;-78
2022/04/23 11:57:14;;;;;;;10.27;8.35;;;19.10;87.80;;;;;;5023500;28;20112;-78
2022/04/23 11:59:42;;;;;;;11.07;8.60;;;19.00;88.30;;;;;;5032753;28;20457;-78
2022/04/23 12:02:23;;;;;;;12.13;8.65;;;19.10;87.70;;;;;;5030920;28;20168;-77
2022/04/23 12:04:54;;;;;;;9.80;8.05;;;19.20;87.00;;;;;;5022605;28;20163;-78
2022/04/23 12:07:21;;;;;;;9.45;8.05;;;19.30;87.20;;;;;;5030929;28;20395;-77
2022/04/23 12:09:51;;;;;;;10.02;8.00;;;19.40;86.70;;;;;;5031120;28;20609;-77
2022/04/23 12:12:21;;;;;;;10.73;8.13;;;19.60;87.50;;;;;;5028022;28;20046;-78
2022/04/23 12:14:51;;;;;;;13.45;7.88;;;19.70;86.00;;;;;;5028278;28;20165;-78
2022/04/23 12:17:26;;;;;;;11.30;7.88;;;19.60;85.40;;;;;;5030152;28;20580;-78
2022/04/23 12:19:54;;;;;;;10.35;8.30;;;19.70;85.20;;;;;;5024849;28;20056;-76
2022/04/23 12:22:23;;;;;;;13.20;7.72;;;19.70;85.10;;;;;;5047158;28;20117;-77
2022/04/23 12:24:49;;;;;;;9.88;7.10;;;19.80;84.00;;;;;;5026542;28;20209;-77
2022/04/23 12:27:17;;;;;;;9.75;7.18;;;19.80;83.60;;;;;;5040408;28;20030;-78
2022/04/23 12:40:57;;;;;;;8.70;6.93;;;20.10;79.40;;;;;;5032435;28;19963;-76
2022/04/23 12:43:25;;;;;;;11.77;7.60;;;20.30;81.20;;;;;;5015929;28;20124;-77
2022/04/23 12:46:05;;;;;;;12.15;7.10;;;20.40;81.30;;;;;;5031725;28;20034;-77
2022/04/23 12:48:32;;;;;;;17.05;6.95;;;20.30;77.40;;;;;;5049038;28;20049;-77
2022/04/23 12:51:06;;;;;;;8.18;6.85;;;20.30;78.60;;;;;;5031291;28;20061;-77
2022/04/23 12:53:36;;;;;;;12.90;7.25;;;20.30;77.10;;;;;;5029423;28;20034;-77
2022/04/23 12:56:05;;;;;;;7.85;7.05;;;20.30;78.20;;;;;;5031438;28;20045;-77
2022/04/23 12:58:32;;;;;;;11.88;6.60;;;20.50;76.80;;;;;;5045948;28;20523;-77
2022/04/23 13:00:57;;;;;;;9.60;6.80;;;20.40;76.50;;;;;;5031488;28;20060;-76
2022/04/23 13:03:33;;;;;;;6.80;5.95;;;20.50;74.90;;;;;;5030270;28;20503;-76
2022/04/23 13:05:59;;;;;;;8.95;6.45;;;20.50;75.00;;;;;;5041144;28;20040;-77
2022/04/23 13:11:25;;;;;;;12.45;6.40;;;20.60;75.60;;;;;;5031396;28;20526;-76
2022/04/23 13:13:54;;;;;;;8.35;6.18;;;20.70;75.20;;;;;;5031337;28;20041;-76
2022/04/23 13:16:21;;;;;;;9.70;6.68;;;20.70;74.40;;;;;;5031097;28;20037;-75